createdAt,value
2022-09-01T00:02:40.854Z,1.93
2022-09-01T00:06:42.834Z,1.90
2022-09-01T00:10:44.354Z,1.97
2022-09-01T00:14:45.866Z,2.20
2022-09-01T00:18:52.304Z,2.03
2022-09-01T00:22:53.915Z,2.07
2022-09-01T00:26:56.730Z,1.87
2022-09-01T00:30:59.729Z,2.00
2022-09-01T00:35:03.241Z,1.90
2022-09-01T00:39:05.622Z,1.73
2022-09-01T00:43:14.961Z,2.00
2022-09-01T00:47:16.808Z,2.00
2022-09-01T00:51:20.624Z,2.00
2022-09-01T00:55:26.697Z,1.70
2022-09-01T00:59:28.928Z,1.83
2022-09-01T01:03:30.567Z,1.83
2022-09-01T01:07:34.627Z,2.10
2022-09-01T01:11:36.438Z,2.10
2022-09-01T01:15:38.217Z,2.10
2022-09-01T01:19:43.049Z,1.87
2022-09-01T01:23:54.805Z,1.80
2022-09-01T01:28:10.406Z,2.00
2022-09-01T01:32:12.214Z,1.97
2022-09-01T01:36:16.701Z,1.90
2022-09-01T01:40:20.440Z,1.87
2022-09-01T01:44:25.466Z,1.70
2022-09-01T01:48:26.973Z,1.70
2022-09-01T01:52:28.743Z,2.10
2022-09-01T01:56:33.675Z,1.80
2022-09-01T02:00:36.686Z,2.00
2022-09-01T02:04:39.374Z,1.63
2022-09-01T02:08:41.150Z,1.90
2022-09-01T02:12:43.489Z,1.73
2022-09-01T02:16:46.445Z,1.60
2022-09-01T02:20:49.838Z,1.60
2022-09-01T02:24:51.400Z,1.67
2022-09-01T02:28:56.000Z,1.70
2022-09-01T02:32:59.194Z,1.60
2022-09-01T02:37:01.007Z,1.50
2022-09-01T02:41:03.082Z,1.80
2022-09-01T02:45:05.733Z,1.70
2022-09-01T02:49:09.591Z,1.57
2022-09-01T02:53:11.219Z,1.63
2022-09-01T02:57:12.831Z,1.70
2022-09-01T03:01:17.184Z,1.60
2022-09-01T03:05:21.339Z,1.77
2022-09-01T03:09:23.107Z,1.60
2022-09-01T03:13:24.747Z,1.70
2022-09-01T03:17:26.387Z,1.90
2022-09-01T03:21:29.851Z,1.70
2022-09-01T03:25:32.063Z,1.67
2022-09-01T03:29:33.534Z,1.90
2022-09-01T03:33:35.980Z,2.00
2022-09-01T03:37:39.478Z,1.93
2022-09-01T03:41:41.087Z,2.00
2022-09-01T03:45:43.268Z,1.80
2022-09-01T03:49:44.814Z,1.87
2022-09-01T03:53:48.372Z,2.20
2022-09-01T03:57:50.176Z,2.10
2022-09-01T04:01:51.957Z,2.00
2022-09-01T04:05:54.201Z,1.70
2022-09-01T04:09:57.489Z,2.10
2022-09-01T04:13:59.834Z,2.00
2022-09-01T04:18:01.418Z,2.00
2022-09-01T04:22:04.446Z,2.13
2022-09-01T04:26:11.870Z,2.10
2022-09-01T04:30:13.450Z,2.03
2022-09-01T04:34:15.057Z,2.00
2022-09-01T04:38:16.662Z,1.83
2022-09-01T04:42:20.919Z,1.83
2022-09-01T04:46:23.143Z,1.93
2022-09-01T04:50:24.662Z,1.87
2022-09-01T04:54:26.374Z,2.27
2022-09-01T04:58:29.270Z,2.20
2022-09-01T05:02:30.827Z,2.33
2022-09-01T05:06:32.618Z,2.23
2022-09-01T05:10:34.170Z,2.40
2022-09-01T05:14:37.278Z,2.10
2022-09-01T05:18:39.610Z,1.83
2022-09-01T05:22:41.151Z,2.00
2022-09-01T05:26:43.733Z,2.17
2022-09-01T05:30:47.708Z,2.30
2022-09-01T05:34:49.436Z,2.10
2022-09-01T05:38:51.180Z,2.30
2022-09-01T05:42:52.626Z,2.00
2022-09-01T05:46:58.865Z,2.00
2022-09-01T05:51:00.364Z,2.23
2022-09-01T05:55:01.841Z,2.30
2022-09-01T06:03:27.448Z,2.00
2022-09-01T06:07:29.097Z,2.10
2022-09-01T06:11:30.619Z,1.90
2022-09-01T06:15:32.803Z,1.83
2022-09-01T06:19:37.367Z,1.80
2022-09-01T06:23:38.994Z,1.67
2022-09-01T06:27:40.454Z,1.50
2022-09-01T06:31:42.956Z,1.60
2022-09-01T06:35:46.009Z,1.63
2022-09-01T06:39:47.586Z,2.00
2022-09-01T06:43:50.842Z,1.70
2022-09-01T06:47:59.998Z,1.93
2022-09-01T18:33:20.697Z,1.83
2022-09-01T18:37:30.129Z,1.70
2022-09-01T18:41:41.865Z,1.87
2022-09-01T18:45:48.377Z,1.90
2022-09-01T18:50:04.953Z,2.13
2022-09-01T18:54:13.377Z,2.10
2022-09-01T18:58:28.929Z,1.90
2022-09-01T19:02:45.780Z,2.20
2022-09-01T19:06:56.805Z,2.10
2022-09-01T19:11:06.060Z,1.80
2022-09-01T19:15:12.817Z,1.93
2022-09-01T19:19:31.642Z,1.77
2022-09-01T19:23:40.374Z,1.90
2022-09-01T19:27:42.165Z,1.90
2022-09-01T19:31:47.295Z,1.93
2022-09-01T19:35:54.017Z,1.80
2022-09-01T19:39:56.902Z,1.57
2022-09-01T19:44:08.332Z,1.57
2022-09-01T19:48:15.679Z,1.70
2022-09-01T19:52:24.657Z,1.83
2022-09-01T19:56:33.705Z,1.60
2022-09-01T20:00:41.133Z,1.80
2022-09-01T20:04:48.756Z,1.77
2022-09-01T20:09:03.665Z,1.53
2022-09-01T20:13:25.904Z,2.10
2022-09-01T20:17:33.709Z,1.80
2022-09-01T20:21:35.627Z,1.50
2022-09-01T20:25:41.939Z,1.50
2022-09-01T20:29:49.045Z,1.33
2022-09-01T20:33:58.032Z,1.40
2022-09-01T20:38:05.972Z,1.50
2022-09-01T20:42:14.948Z,1.73
2022-09-01T20:46:19.514Z,1.50
2022-09-01T20:50:26.984Z,1.70
2022-09-01T20:54:35.844Z,1.50
2022-09-01T20:58:42.290Z,1.50
2022-09-01T21:02:54.621Z,1.40
2022-09-01T21:07:03.480Z,1.43
2022-09-01T21:11:19.536Z,1.50
2022-09-01T21:15:33.148Z,1.80
2022-09-01T21:19:44.621Z,1.57
2022-09-01T21:23:46.097Z,1.70
2022-09-01T21:27:50.336Z,1.67
2022-09-01T21:31:52.026Z,1.50
2022-09-01T21:35:55.820Z,1.30
2022-09-01T21:39:57.591Z,1.20
2022-09-01T21:43:59.147Z,1.40
2022-09-01T21:48:01.507Z,1.30
2022-09-01T21:52:05.568Z,1.50
2022-09-01T21:56:07.256Z,1.40
2022-09-01T22:00:12.708Z,1.67
2022-09-01T22:04:14.343Z,1.30
2022-09-01T22:08:17.205Z,1.40
2022-09-01T22:12:18.868Z,1.40
2022-09-01T22:16:21.266Z,1.50
2022-09-01T22:20:25.235Z,1.30
2022-09-01T22:24:28.155Z,1.10
2022-09-01T22:28:29.860Z,1.60
2022-09-01T22:32:33.160Z,1.27
2022-09-01T22:36:37.443Z,1.40
2022-09-01T22:40:45.843Z,1.30
2022-09-01T22:44:47.408Z,1.40
2022-09-01T22:48:49.126Z,1.40
2022-09-01T22:52:50.763Z,1.30
2022-09-01T22:56:53.640Z,1.37
2022-09-01T23:00:57.780Z,1.40
2022-09-01T23:04:59.777Z,1.20
2022-09-01T23:09:02.427Z,1.30
2022-09-01T23:13:05.980Z,1.20
2022-09-01T23:17:07.465Z,1.10
2022-09-01T23:21:10.573Z,1.20
2022-09-01T23:25:14.701Z,1.30
2022-09-01T23:29:18.084Z,1.20
2022-09-01T23:33:22.686Z,1.23
2022-09-01T23:37:24.532Z,1.33
2022-09-01T23:41:29.007Z,1.07
2022-09-01T23:45:35.685Z,1.50
2022-09-01T23:49:39.019Z,1.30
2022-09-01T23:53:40.858Z,1.50
2022-09-01T23:57:42.447Z,1.27
